createdAt,value
2018-10-17T00:13:08.571Z,99.90
2018-10-17T00:15:37.878Z,99.90
2018-10-17T00:18:06.461Z,99.90
2018-10-17T00:20:35.423Z,99.90
2018-10-17T00:23:04.323Z,99.90
2018-10-17T00:25:33.532Z,99.90
2018-10-17T00:28:02.795Z,99.90
2018-10-17T00:30:31.715Z,99.90
2018-10-17T00:33:00.467Z,99.90
2018-10-17T00:35:29.340Z,99.90
2018-10-17T00:37:58.373Z,99.90
2018-10-17T00:40:27.308Z,99.90
2018-10-17T00:42:56.383Z,99.90
2018-10-17T00:45:25.240Z,99.90
2018-10-17T00:47:55.154Z,99.90
2018-10-17T00:50:24.076Z,99.90
2018-10-17T00:52:53.486Z,99.90
2018-10-17T00:55:22.734Z,99.90
2018-10-17T00:57:51.775Z,99.90
2018-10-17T01:00:20.385Z,99.90
2018-10-17T01:02:49.269Z,99.90
2018-10-17T01:05:18.535Z,99.90
2018-10-17T01:07:47.497Z,99.90
2018-10-17T01:10:16.269Z,99.90
2018-10-17T01:12:45.055Z,99.90
2018-10-17T01:15:13.922Z,99.90
2018-10-17T01:17:43.689Z,99.90
2018-10-17T01:20:12.410Z,99.90
2018-10-17T01:22:41.004Z,99.90
2018-10-17T01:25:09.596Z,99.90
2018-10-17T01:27:38.209Z,99.90
2018-10-17T01:30:07.625Z,99.90
2018-10-17T01:32:36.184Z,99.90
2018-10-17T01:35:05.252Z,99.90
2018-10-17T01:37:34.037Z,99.90
2018-10-17T01:40:02.866Z,99.90
2018-10-17T01:42:31.725Z,99.90
2018-10-17T01:45:00.563Z,99.90
2018-10-17T01:47:29.184Z,99.90
2018-10-17T01:49:57.750Z,99.90
2018-10-17T01:52:26.538Z,99.90
2018-10-17T01:54:55.111Z,99.90
2018-10-17T01:57:23.712Z,99.90
2018-10-17T01:59:52.762Z,99.90
2018-10-17T02:02:21.395Z,99.90
2018-10-17T02:04:50.217Z,99.90
2018-10-17T02:07:19.245Z,99.90
2018-10-17T02:09:48.153Z,99.90
2018-10-17T02:12:16.980Z,99.90
2018-10-17T02:14:45.861Z,99.90
2018-10-17T02:17:14.931Z,99.90
2018-10-17T02:19:43.510Z,99.90
2018-10-17T02:22:12.363Z,99.90
2018-10-17T02:24:41.199Z,99.90
2018-10-17T02:27:10.028Z,99.90
2018-10-17T02:29:38.778Z,99.90
2018-10-17T02:32:07.621Z,99.90
2018-10-17T02:34:40.503Z,99.90
2018-10-17T02:37:09.489Z,99.90
2018-10-17T02:39:38.781Z,99.90
2018-10-17T02:42:07.750Z,99.90
2018-10-17T02:44:36.892Z,99.90
2018-10-17T02:47:05.945Z,99.90
2018-10-17T02:49:34.513Z,99.90
2018-10-17T02:52:03.539Z,99.90
2018-10-17T02:54:32.238Z,99.90
2018-10-17T02:57:00.807Z,99.90
2018-10-17T02:59:29.512Z,99.90
2018-10-17T03:01:58.220Z,99.90
2018-10-17T03:04:26.935Z,99.90
2018-10-17T03:06:55.670Z,99.90
2018-10-17T03:09:24.440Z,99.90
2018-10-17T03:11:54.492Z,99.90
2018-10-17T03:14:23.845Z,99.90
2018-10-17T03:16:52.737Z,99.90
2018-10-17T03:19:21.709Z,99.90
2018-10-17T03:21:50.282Z,99.90
2018-10-17T03:24:19.035Z,99.90
2018-10-17T03:26:47.494Z,99.90
2018-10-17T03:29:16.052Z,99.90
2018-10-17T03:31:44.891Z,99.90
2018-10-17T03:34:13.753Z,99.90
2018-10-17T03:36:42.556Z,99.90
2018-10-17T03:39:12.642Z,99.90
2018-10-17T03:41:41.290Z,99.90
2018-10-17T03:44:10.163Z,99.90
2018-10-17T03:46:39.147Z,99.90
2018-10-17T03:49:08.652Z,99.90
2018-10-17T03:51:37.610Z,99.90
2018-10-17T03:54:06.614Z,99.90
2018-10-17T03:56:35.395Z,99.90
2018-10-17T03:59:04.419Z,99.90
2018-10-17T04:01:33.060Z,99.90
2018-10-17T04:04:01.716Z,99.90
2018-10-17T04:06:30.976Z,99.90
2018-10-17T04:08:59.656Z,99.90
2018-10-17T04:11:28.861Z,99.90
2018-10-17T04:13:57.912Z,99.90
2018-10-17T04:16:26.976Z,99.90
2018-10-17T04:18:55.951Z,99.90
2018-10-17T04:21:24.767Z,99.90
2018-10-17T04:23:53.667Z,99.90
2018-10-17T04:26:22.608Z,99.90
2018-10-17T04:28:51.201Z,99.90
2018-10-17T04:31:20.028Z,99.90
2018-10-17T04:38:52.672Z,99.90
2018-10-17T04:41:21.717Z,99.90
2018-10-17T04:43:50.583Z,99.90
2018-10-17T04:46:19.249Z,99.90
2018-10-17T04:48:47.997Z,99.90
2018-10-17T04:51:16.781Z,99.90
2018-10-17T04:53:45.524Z,99.90
2018-10-17T04:56:14.368Z,99.90
2018-10-17T04:58:43.260Z,99.90
2018-10-17T05:01:11.975Z,99.90
2018-10-17T05:03:40.809Z,99.90
2018-10-17T05:06:09.445Z,99.90
2018-10-17T05:08:38.882Z,99.90
2018-10-17T05:11:08.193Z,99.90
2018-10-17T05:13:37.357Z,99.90
2018-10-17T05:16:06.839Z,99.90
2018-10-17T05:18:35.872Z,99.90
2018-10-17T05:21:04.745Z,99.90
2018-10-17T05:23:33.369Z,99.90
2018-10-17T05:26:02.028Z,99.90
2018-10-17T05:28:30.576Z,99.90
2018-10-17T05:30:59.638Z,99.90
2018-10-17T05:33:28.787Z,99.90
2018-10-17T05:35:57.841Z,99.90
2018-10-17T05:38:27.043Z,99.90
2018-10-17T05:40:55.952Z,99.90
2018-10-17T05:43:25.081Z,99.90
2018-10-17T05:45:54.273Z,99.90
2018-10-17T05:48:23.130Z,99.90
2018-10-17T05:50:52.103Z,99.90
2018-10-17T05:53:20.876Z,99.90
2018-10-17T05:55:49.553Z,99.90
2018-10-17T05:58:18.369Z,99.90
2018-10-17T06:00:47.226Z,99.90
2018-10-17T06:03:15.986Z,99.90
2018-10-17T06:05:44.864Z,99.90
2018-10-17T06:08:14.040Z,99.90
2018-10-17T06:10:42.976Z,99.90
2018-10-17T06:13:13.205Z,99.90
2018-10-17T06:15:42.141Z,99.90
2018-10-17T06:18:11.435Z,99.90
2018-10-17T06:20:42.360Z,99.90
2018-10-17T06:23:11.355Z,99.90
2018-10-17T06:25:40.353Z,99.90
2018-10-17T06:28:09.534Z,99.90
2018-10-17T06:30:39.185Z,99.90
2018-10-17T06:33:11.630Z,99.90
2018-10-17T06:35:41.658Z,99.90
2018-10-17T06:38:10.884Z,99.90
2018-10-17T06:40:41.941Z,99.90
2018-10-17T06:43:13.232Z,99.90
2018-10-17T06:45:42.768Z,99.90
2018-10-17T06:48:11.668Z,99.90
2018-10-17T06:50:41.083Z,99.90
2018-10-17T06:53:10.954Z,99.90
2018-10-17T06:55:43.755Z,99.90
2018-10-17T06:58:13.201Z,99.90
2018-10-17T07:00:44.984Z,99.90
2018-10-17T07:03:13.903Z,99.90
2018-10-17T07:05:43.112Z,99.90
2018-10-17T07:08:12.610Z,99.90
2018-10-17T07:10:41.568Z,99.90
2018-10-17T07:13:11.657Z,99.90
2018-10-17T07:15:40.994Z,99.90
2018-10-17T07:18:10.688Z,99.90
2018-10-17T07:20:39.759Z,99.90
2018-10-17T07:23:09.214Z,99.90
2018-10-17T07:25:38.273Z,99.90
2018-10-17T07:28:07.026Z,99.90
2018-10-17T07:30:36.166Z,99.90
2018-10-17T07:33:05.615Z,99.90
2018-10-17T07:35:34.824Z,99.90
2018-10-17T07:38:03.835Z,99.90
2018-10-17T07:40:33.413Z,99.90
2018-10-17T07:43:02.199Z,99.90
2018-10-17T07:45:31.209Z,99.90
2018-10-17T07:48:00.195Z,99.90
2018-10-17T07:50:29.171Z,99.90
2018-10-17T07:52:57.952Z,99.90
2018-10-17T07:55:26.977Z,99.90
2018-10-17T07:57:55.969Z,99.90
2018-10-17T08:00:24.873Z,99.90
2018-10-17T08:02:53.992Z,99.90
2018-10-17T08:05:23.112Z,99.90
2018-10-17T08:07:52.118Z,99.90
2018-10-17T08:10:22.717Z,99.90
2018-10-17T08:12:53.048Z,99.90
2018-10-17T08:15:22.390Z,99.90
2018-10-17T08:17:51.280Z,99.90
2018-10-17T08:20:20.874Z,99.90
2018-10-17T08:22:49.770Z,99.90
2018-10-17T08:25:18.785Z,99.90
2018-10-17T08:27:48.051Z,99.90
2018-10-17T08:30:17.279Z,99.90
2018-10-17T08:32:47.407Z,99.90
2018-10-17T08:35:17.972Z,99.90
2018-10-17T08:37:47.499Z,99.90
2018-10-17T08:40:16.423Z,99.90
2018-10-17T08:42:45.491Z,99.90
2018-10-17T08:45:14.955Z,99.90
2018-10-17T08:47:43.813Z,99.90
2018-10-17T08:50:12.949Z,99.90
2018-10-17T08:52:42.020Z,99.90
2018-10-17T08:55:11.276Z,99.90
2018-10-17T08:57:40.078Z,99.90
2018-10-17T09:00:09.185Z,99.90
2018-10-17T09:02:37.943Z,99.90
2018-10-17T09:05:06.894Z,99.90
2018-10-17T09:07:35.901Z,99.90
2018-10-17T09:10:04.851Z,99.90
2018-10-17T09:12:35.063Z,99.90
2018-10-17T09:15:04.142Z,99.90
2018-10-17T09:17:32.958Z,99.90
2018-10-17T09:20:01.963Z,99.90
2018-10-17T09:22:30.507Z,99.90
2018-10-17T09:24:59.351Z,99.90
2018-10-17T09:27:28.329Z,99.90
2018-10-17T09:29:57.274Z,99.90
2018-10-17T09:32:26.714Z,99.90
2018-10-17T09:34:55.711Z,99.90
2018-10-17T09:37:25.695Z,99.90
2018-10-17T09:39:55.652Z,99.90
2018-10-17T09:42:25.171Z,99.90
2018-10-17T09:44:54.998Z,99.90
2018-10-17T09:47:24.729Z,99.90
2018-10-17T09:49:54.508Z,99.90
2018-10-17T09:52:23.705Z,99.90
2018-10-17T09:54:56.330Z,99.90
2018-10-17T09:57:26.992Z,99.90
2018-10-17T09:59:56.633Z,99.90
2018-10-17T10:02:26.301Z,99.90
2018-10-17T10:04:55.797Z,99.90
2018-10-17T10:07:24.988Z,99.90
2018-10-17T10:10:00.010Z,99.90
2018-10-17T10:12:29.662Z,99.90
2018-10-17T10:14:58.875Z,99.90
2018-10-17T10:17:28.006Z,99.90
2018-10-17T10:19:57.022Z,99.90
2018-10-17T10:22:27.626Z,99.90
2018-10-17T10:24:57.448Z,99.90
2018-10-17T10:27:26.468Z,99.90
2018-10-17T10:29:56.198Z,99.90
2018-10-17T10:32:25.236Z,99.90
2018-10-17T10:34:53.990Z,99.90
2018-10-17T10:37:22.901Z,99.90
2018-10-17T10:39:52.026Z,99.90
2018-10-17T10:42:21.198Z,99.90
2018-10-17T10:44:50.503Z,99.90
2018-10-17T10:47:22.910Z,99.90
2018-10-17T10:49:52.278Z,99.90
2018-10-17T10:52:24.375Z,99.90
2018-10-17T10:54:53.063Z,99.90
2018-10-17T10:57:21.854Z,99.90
2018-10-17T10:59:50.632Z,99.90
2018-10-17T11:02:21.142Z,99.90
2018-10-17T11:04:50.290Z,99.90
2018-10-17T11:07:20.749Z,99.90
2018-10-17T11:09:50.417Z,99.90
2018-10-17T11:12:19.912Z,99.90
2018-10-17T11:14:49.289Z,99.40
2018-10-17T11:17:18.801Z,98.80
2018-10-17T11:19:48.053Z,98.60
2018-10-17T11:22:22.824Z,98.60
2018-10-17T11:24:51.990Z,98.20
2018-10-17T11:27:28.884Z,97.00
2018-10-17T11:29:58.336Z,96.90
2018-10-17T11:32:27.324Z,96.00
2018-10-17T11:34:56.807Z,95.50
2018-10-17T11:37:25.677Z,95.00
2018-10-17T11:40:01.504Z,94.50
2018-10-17T11:42:30.713Z,94.80
2018-10-17T11:45:00.559Z,94.70
2018-10-17T11:47:30.453Z,94.80
2018-10-17T11:49:59.623Z,93.80
2018-10-17T11:52:39.526Z,93.70
2018-10-17T11:55:13.583Z,93.30
2018-10-17T11:57:43.420Z,93.50
2018-10-17T12:00:13.677Z,93.30
2018-10-17T12:02:43.274Z,93.50
2018-10-17T12:05:17.050Z,93.10
2018-10-17T12:07:51.441Z,92.30
2018-10-17T12:12:59.312Z,93.20
2018-10-17T12:15:35.418Z,92.50
2018-10-17T12:18:04.385Z,92.00
2018-10-17T12:20:33.674Z,92.30
2018-10-17T12:23:03.651Z,92.30
2018-10-17T12:25:33.041Z,92.70
2018-10-17T12:28:02.303Z,92.10
2018-10-17T12:30:33.360Z,92.60
2018-10-17T12:33:05.032Z,92.00
2018-10-17T12:35:34.462Z,92.30
2018-10-17T12:40:58.789Z,93.00
2018-10-17T12:43:29.688Z,92.90
2018-10-17T12:46:02.040Z,92.40
2018-10-17T12:48:32.761Z,92.60
2018-10-17T12:51:13.956Z,92.30
2018-10-17T12:53:49.718Z,92.00
2018-10-17T12:56:22.564Z,92.10
2018-10-17T12:59:01.161Z,91.90
2018-10-17T13:01:32.149Z,91.60
2018-10-17T13:04:17.120Z,90.80
2018-10-17T13:06:46.156Z,90.80
2018-10-17T13:09:15.312Z,90.10
2018-10-17T13:11:44.463Z,90.80
2018-10-17T13:14:13.781Z,90.30
2018-10-17T13:16:45.144Z,90.20
2018-10-17T13:19:20.146Z,89.60
2018-10-17T13:21:49.992Z,90.40
2018-10-17T13:24:22.216Z,89.60
2018-10-17T13:26:53.289Z,89.50
2018-10-17T13:29:23.285Z,90.20
2018-10-17T13:31:53.350Z,90.00
2018-10-17T13:34:28.177Z,90.00
2018-10-17T13:37:01.643Z,90.00
2018-10-17T13:39:32.709Z,90.10
2018-10-17T13:45:20.178Z,90.20
2018-10-17T13:47:52.338Z,90.30
2018-10-17T13:50:22.115Z,90.10
2018-10-17T13:54:13.991Z,90.00
2018-10-17T13:59:27.671Z,90.00
2018-10-17T14:01:57.214Z,89.70
2018-10-17T14:04:26.425Z,90.20
2018-10-17T14:06:55.885Z,90.30
2018-10-17T14:09:29.901Z,90.40
2018-10-17T14:12:01.207Z,90.50
2018-10-17T14:14:30.226Z,90.80
2018-10-17T14:17:09.850Z,90.70
2018-10-17T14:19:39.865Z,91.10
2018-10-17T14:22:10.351Z,90.70
2018-10-17T14:24:39.862Z,90.40
2018-10-17T14:27:08.786Z,91.00
2018-10-17T14:29:37.468Z,91.50
2018-10-17T14:32:06.978Z,91.40
2018-10-17T14:34:36.611Z,91.50
2018-10-17T14:37:06.267Z,91.90
2018-10-17T14:39:35.654Z,92.10
2018-10-17T14:42:04.783Z,92.40
2018-10-17T14:44:34.043Z,92.70
2018-10-17T14:47:03.221Z,92.90
2018-10-17T14:49:33.901Z,93.20
2018-10-17T14:52:09.272Z,93.10
2018-10-17T14:54:38.476Z,92.80
2018-10-17T14:57:07.387Z,92.70
2018-10-17T14:59:36.431Z,92.80
2018-10-17T15:02:06.314Z,93.10
2018-10-17T15:04:36.626Z,93.20
2018-10-17T15:07:06.060Z,93.20
2018-10-17T15:09:35.493Z,93.00
2018-10-17T15:12:05.656Z,92.40
2018-10-17T15:14:34.614Z,92.60
2018-10-17T15:17:04.028Z,92.70
2018-10-17T15:19:33.916Z,92.80
2018-10-17T15:22:03.001Z,92.90
2018-10-17T15:24:32.762Z,92.70
2018-10-17T15:27:02.128Z,93.00
2018-10-17T15:29:34.348Z,93.50
2018-10-17T15:32:05.075Z,94.00
2018-10-17T15:34:34.484Z,94.10
2018-10-17T15:37:03.925Z,94.50
2018-10-17T15:39:36.670Z,95.20
2018-10-17T15:42:08.588Z,95.80
2018-10-17T15:44:38.168Z,96.30
2018-10-17T15:47:08.021Z,96.50
2018-10-17T15:49:37.726Z,96.90
2018-10-17T15:52:07.280Z,96.60
2018-10-17T15:54:37.606Z,97.20
2018-10-17T15:57:06.783Z,97.50
2018-10-17T15:59:36.358Z,97.60
2018-10-17T16:02:05.619Z,97.70
2018-10-17T16:04:38.279Z,98.30
2018-10-17T16:07:11.831Z,98.60
2018-10-17T16:09:44.314Z,99.20
2018-10-17T16:12:14.465Z,99.30
2018-10-17T16:14:45.370Z,99.50
2018-10-17T16:17:16.069Z,99.40
2018-10-17T16:19:45.830Z,99.90
2018-10-17T16:22:14.881Z,99.90
2018-10-17T16:24:43.593Z,99.90
2018-10-17T16:27:12.630Z,99.90
2018-10-17T16:29:41.839Z,99.90
2018-10-17T16:32:10.838Z,99.90
2018-10-17T16:34:39.894Z,99.90
2018-10-17T16:37:09.112Z,99.90
2018-10-17T16:39:38.585Z,99.90
2018-10-17T16:42:08.323Z,99.90
2018-10-17T16:44:38.292Z,99.90
2018-10-17T16:47:08.072Z,99.90
2018-10-17T16:49:37.589Z,99.90
2018-10-17T16:52:07.043Z,99.90
2018-10-17T16:54:36.370Z,99.90
2018-10-17T16:57:05.500Z,99.90
2018-10-17T16:59:34.144Z,99.90
2018-10-17T17:02:03.164Z,99.90
2018-10-17T17:04:31.815Z,99.90
2018-10-17T17:07:00.664Z,99.90
2018-10-17T17:09:29.326Z,99.90
2018-10-17T17:11:57.891Z,99.90
2018-10-17T17:14:26.769Z,99.90
2018-10-17T17:16:55.638Z,99.90
2018-10-17T17:19:24.723Z,99.90
2018-10-17T17:21:54.185Z,99.90
2018-10-17T17:24:23.296Z,99.90
2018-10-17T17:26:52.258Z,99.90
2018-10-17T17:29:21.163Z,99.90
2018-10-17T17:31:49.893Z,99.90
2018-10-17T17:34:18.717Z,99.90
2018-10-17T17:36:47.494Z,99.90
2018-10-17T17:39:16.502Z,99.90
2018-10-17T17:41:45.276Z,99.90
2018-10-17T17:44:13.989Z,99.90
2018-10-17T17:46:42.912Z,99.90
2018-10-17T17:49:11.780Z,99.90
2018-10-17T17:51:40.712Z,99.90
2018-10-17T17:54:09.707Z,99.90
2018-10-17T17:56:38.703Z,99.90
2018-10-17T17:59:07.634Z,99.90
2018-10-17T18:01:36.576Z,99.90
2018-10-17T18:04:05.807Z,99.90
2018-10-17T18:06:34.886Z,99.90
2018-10-17T18:09:04.247Z,99.90
2018-10-17T18:11:33.174Z,99.90
2018-10-17T18:14:02.574Z,99.90
2018-10-17T18:16:31.340Z,99.90
2018-10-17T18:19:00.123Z,99.90
2018-10-17T18:21:28.845Z,99.90
2018-10-17T18:23:57.889Z,99.90
2018-10-17T18:26:26.825Z,99.90
2018-10-17T18:28:55.563Z,99.90
2018-10-17T18:31:24.673Z,99.90
2018-10-17T18:33:53.600Z,99.90
2018-10-17T18:36:22.565Z,99.90
2018-10-17T18:38:52.138Z,99.90
2018-10-17T18:41:20.873Z,99.90
2018-10-17T18:43:49.599Z,99.90
2018-10-17T18:46:18.489Z,99.90
2018-10-17T18:48:47.368Z,99.90
2018-10-17T18:51:15.861Z,99.90
2018-10-17T18:53:44.625Z,99.90
2018-10-17T18:56:13.519Z,99.90
2018-10-17T18:58:42.300Z,99.90
2018-10-17T19:01:11.181Z,99.90
2018-10-17T19:03:40.165Z,99.90
2018-10-17T19:06:09.191Z,99.90
2018-10-17T19:08:38.640Z,99.90
2018-10-17T19:11:08.131Z,99.90
2018-10-17T19:13:37.525Z,99.90
2018-10-17T19:16:06.945Z,99.90
2018-10-17T19:18:36.189Z,99.90
2018-10-17T19:21:05.336Z,99.90
2018-10-17T19:23:34.354Z,99.90
2018-10-17T19:26:03.272Z,99.90
2018-10-17T19:28:32.163Z,99.90
2018-10-17T19:35:59.418Z,99.90
2018-10-17T19:38:28.153Z,99.90
2018-10-17T19:40:56.774Z,99.90
2018-10-17T19:43:25.508Z,99.90
2018-10-17T19:45:54.695Z,99.90
2018-10-17T19:48:23.721Z,99.90
2018-10-17T19:50:52.674Z,99.90
2018-10-17T19:53:21.379Z,99.90
2018-10-17T19:55:50.636Z,99.90
2018-10-17T19:58:20.819Z,99.90
2018-10-17T20:00:51.022Z,99.90
2018-10-17T20:03:22.073Z,99.90
2018-10-17T20:05:51.073Z,99.90
2018-10-17T20:08:19.975Z,99.90
2018-10-17T20:10:48.755Z,99.90
2018-10-17T20:13:17.835Z,99.90
2018-10-17T20:15:48.326Z,99.90
2018-10-17T20:18:17.186Z,99.90
2018-10-17T20:20:46.050Z,99.90
2018-10-17T20:23:15.077Z,99.90
2018-10-17T20:25:44.134Z,99.90
2018-10-17T20:28:14.738Z,99.90
2018-10-17T20:30:44.784Z,99.90
2018-10-17T20:33:13.999Z,99.90
2018-10-17T20:35:42.664Z,99.90
2018-10-17T20:38:11.470Z,99.90
2018-10-17T20:40:40.342Z,99.90
2018-10-17T20:43:09.605Z,99.90
2018-10-17T20:49:29.142Z,99.90
2018-10-17T20:51:58.295Z,99.90
2018-10-17T20:54:27.552Z,99.90
2018-10-17T20:56:56.333Z,99.90
2018-10-17T20:59:25.345Z,99.90
2018-10-17T21:01:54.624Z,99.90
2018-10-17T21:04:23.347Z,99.90
2018-10-17T21:06:52.259Z,99.90
2018-10-17T21:09:21.701Z,99.90
2018-10-17T21:11:50.367Z,99.90
2018-10-17T21:14:19.756Z,99.90
2018-10-17T21:16:48.609Z,99.90
2018-10-17T21:19:17.705Z,99.90
2018-10-17T21:21:46.339Z,99.90
2018-10-17T21:24:15.350Z,99.90
2018-10-17T21:26:44.240Z,99.90
2018-10-17T21:29:12.928Z,99.90
2018-10-17T21:31:41.591Z,99.90
2018-10-17T21:34:10.210Z,99.90
2018-10-17T21:36:39.148Z,99.90
2018-10-17T21:39:10.446Z,99.90
2018-10-17T21:41:39.766Z,99.90
2018-10-17T21:44:10.353Z,99.90
2018-10-17T21:46:39.573Z,99.90
2018-10-17T21:49:09.620Z,99.90
2018-10-17T21:51:39.348Z,99.90
2018-10-17T21:54:08.488Z,99.90
2018-10-17T21:56:37.684Z,99.90
2018-10-17T21:59:07.493Z,99.90
2018-10-17T22:01:36.446Z,99.90
2018-10-17T22:04:05.630Z,99.90
2018-10-17T22:06:34.921Z,99.90
2018-10-17T22:09:04.737Z,99.90
2018-10-17T22:11:33.471Z,99.90
2018-10-17T22:14:02.148Z,99.90
2018-10-17T22:17:35.180Z,99.90
2018-10-17T22:20:04.453Z,99.90
2018-10-17T22:22:33.393Z,99.90
2018-10-17T22:25:02.270Z,99.90
2018-10-17T22:27:31.201Z,99.90
2018-10-17T22:30:00.097Z,99.90
2018-10-17T22:32:28.749Z,99.90
2018-10-17T22:34:57.618Z,99.90
2018-10-17T22:37:26.182Z,99.90
2018-10-17T22:39:55.466Z,99.90
2018-10-17T22:42:25.161Z,99.90
2018-10-17T22:44:54.439Z,99.90
2018-10-17T22:47:23.497Z,99.90
2018-10-17T22:49:52.665Z,99.90
2018-10-17T22:52:21.468Z,99.90
2018-10-17T22:54:50.361Z,99.90
2018-10-17T22:57:19.571Z,99.90
2018-10-17T22:59:48.153Z,99.90
2018-10-17T23:02:17.152Z,99.90
2018-10-17T23:09:26.623Z,99.90
2018-10-17T23:11:55.329Z,99.90
2018-10-17T23:14:24.328Z,99.90
2018-10-17T23:16:53.542Z,99.90
2018-10-17T23:19:22.543Z,99.90
2018-10-17T23:21:51.307Z,99.90
2018-10-17T23:24:20.079Z,99.90
2018-10-17T23:26:48.773Z,99.90
2018-10-17T23:29:17.679Z,99.90
2018-10-17T23:31:46.358Z,99.90
2018-10-17T23:34:15.393Z,99.90
2018-10-17T23:36:44.125Z,99.90
2018-10-17T23:39:13.152Z,99.90
2018-10-17T23:41:42.431Z,99.90
2018-10-17T23:44:11.266Z,99.90
2018-10-17T23:46:40.733Z,99.90
2018-10-17T23:49:09.947Z,99.90
2018-10-17T23:51:39.254Z,99.90
2018-10-17T23:54:08.994Z,99.90
2018-10-17T23:56:37.605Z,99.90
2018-10-17T23:59:06.672Z,99.90
